sensor_id;sensor_type;location;lat;lon;timestamp;P1;P2;P0
45312;PMS7003;68267;51.540;5.854;2023-11-19T00:02:41;10.21;11.45;10.69
45312;PMS7003;68267;51.540;5.854;2023-11-19T00:16:00;9.85;10.69;9.82
45312;PMS7003;68267;51.540;5.854;2023-11-19T00:29:20;6.73;9.38;8.73
45312;PMS7003;68267;51.540;5.854;2023-11-19T00:42:39;7.33;7.86;6.55
45312;PMS7003;68267;51.540;5.854;2023-11-19T00:55:59;2.4;5.46;5.13
45312;PMS7003;68267;51.540;5.854;2023-11-19T01:09:19;7.09;5.13;4.48
45312;PMS7003;68267;51.540;5.854;2023-11-19T01:22:38;1.92;5.02;4.15
45312;PMS7003;68267;51.540;5.854;2023-11-19T01:35:58;2.16;5.24;3.61
45312;PMS7003;68267;51.540;5.854;2023-11-19T01:49:18;2.64;5.68;3.61
45312;PMS7003;68267;51.540;5.854;2023-11-19T02:02:37;7.57;6.0;3.61
45312;PMS7003;68267;51.540;5.854;2023-11-19T02:15:57;2.52;5.57;3.71
45312;PMS7003;68267;51.540;5.854;2023-11-19T02:29:17;2.76;5.79;3.5
45312;PMS7003;68267;51.540;5.854;2023-11-19T02:42:39;3.48;6.44;3.93
45312;PMS7003;68267;51.540;5.854;2023-11-19T02:55:58;3.24;6.22;3.71
45312;PMS7003;68267;51.540;5.854;2023-11-19T03:09:18;3.12;6.11;3.39
45312;PMS7003;68267;51.540;5.854;2023-11-19T03:22:38;6.49;6.99;3.71
45312;PMS7003;68267;51.540;5.854;2023-11-19T03:35:57;13.33;7.86;3.5
45312;PMS7003;68267;51.540;5.854;2023-11-19T03:49:17;8.65;7.31;3.06
45312;PMS7003;68267;51.540;5.854;2023-11-19T04:02:37;4.69;7.53;3.17
45312;PMS7003;68267;51.540;5.854;2023-11-19T04:15:56;11.05;8.29;3.5
45312;PMS7003;68267;51.540;5.854;2023-11-19T04:29:16;30.85;8.29;3.82
45312;PMS7003;68267;51.540;5.854;2023-11-19T04:42:38;16.09;9.6;3.71
45312;PMS7003;68267;51.540;5.854;2023-11-19T04:56:00;8.17;8.51;3.93
45312;PMS7003;68267;51.540;5.854;2023-11-19T05:09:20;14.53;8.84;3.93
45312;PMS7003;68267;51.540;5.854;2023-11-19T05:22:39;6.85;9.49;3.93
45312;PMS7003;68267;51.540;5.854;2023-11-19T05:35:59;31.33;7.97;3.71
45312;PMS7003;68267;51.540;5.854;2023-11-19T05:49:19;9.97;8.84;3.39
45312;PMS7003;68267;51.540;5.854;2023-11-19T06:02:38;85.23;9.17;3.28
45312;PMS7003;68267;51.540;5.854;2023-11-19T06:15:58;14.05;10.36;3.82
45312;PMS7003;68267;51.540;5.854;2023-11-19T06:29:18;9.85;10.58;3.71
45312;PMS7003;68267;51.540;5.854;2023-11-19T06:42:37;20.77;8.95;3.5
45312;PMS7003;68267;51.540;5.854;2023-11-19T06:55:59;13.21;9.49;3.5
45312;PMS7003;68267;51.540;5.854;2023-11-19T07:09:22;20.77;9.71;3.39
45312;PMS7003;68267;51.540;5.854;2023-11-19T07:22:41;6.25;8.95;3.17
45312;PMS7003;68267;51.540;5.854;2023-11-19T07:36:01;11.65;8.95;3.61
45312;PMS7003;68267;51.540;5.854;2023-11-19T07:49:20;14.17;9.6;3.39
45312;PMS7003;68267;51.540;5.854;2023-11-19T08:02:40;32.53;7.86;3.39
45312;PMS7003;68267;51.540;5.854;2023-11-19T08:16:00;19.45;9.71;3.39
45312;PMS7003;68267;51.540;5.854;2023-11-19T08:29:19;29.17;8.95;3.39
45312;PMS7003;68267;51.540;5.854;2023-11-19T08:42:39;5.05;7.86;3.28
45312;PMS7003;68267;51.540;5.854;2023-11-19T08:55:59;14.05;9.38;3.61
45312;PMS7003;68267;51.540;5.854;2023-11-19T09:09:18;5.77;8.51;3.39
45312;PMS7003;68267;51.540;5.854;2023-11-19T09:22:40;20.17;8.18;3.5
45312;PMS7003;68267;51.540;5.854;2023-11-19T09:36:00;16.69;7.86;3.5
45312;PMS7003;68267;51.540;5.854;2023-11-19T09:49:20;19.45;9.93;3.5
45312;PMS7003;68267;51.540;5.854;2023-11-19T10:02:42;8.53;8.08;3.71
45312;PMS7003;68267;51.540;5.854;2023-11-19T10:16:02;11.29;7.86;3.28
45312;PMS7003;68267;51.540;5.854;2023-11-19T10:29:21;31.09;8.4;3.06
45312;PMS7003;68267;51.540;5.854;2023-11-19T10:42:41;13.09;8.4;3.17
45312;PMS7003;68267;51.540;5.854;2023-11-19T10:56:00;6.85;7.53;3.17
45312;PMS7003;68267;51.540;5.854;2023-11-19T11:09:20;9.13;8.18;3.5
45312;PMS7003;68267;51.540;5.854;2023-11-19T11:22:40;3.85;6.77;2.84
45312;PMS7003;68267;51.540;5.854;2023-11-19T11:35:59;16.93;6.99;3.17
45312;PMS7003;68267;51.540;5.854;2023-11-19T11:49:19;36.5;7.53;3.39
45312;PMS7003;68267;51.540;5.854;2023-11-19T12:02:39;2.76;5.79;2.52
45312;PMS7003;68267;51.540;5.854;2023-11-19T12:15:58;4.09;6.99;2.84
45312;PMS7003;68267;51.540;5.854;2023-11-19T12:29:18;40.82;6.55;2.84
45312;PMS7003;68267;51.540;5.854;2023-11-19T12:42:40;25.93;5.79;2.95
45312;PMS7003;68267;51.540;5.854;2023-11-19T12:56:02;20.65;6.11;3.06
45312;PMS7003;68267;51.540;5.854;2023-11-19T13:09:22;4.21;7.09;2.95
45312;PMS7003;68267;51.540;5.854;2023-11-19T13:22:42;3.24;6.22;2.73
45312;PMS7003;68267;51.540;5.854;2023-11-19T13:36:01;13.81;6.66;2.3
45312;PMS7003;68267;51.540;5.854;2023-11-19T13:49:21;14.89;6.77;3.06
45312;PMS7003;68267;51.540;5.854;2023-11-19T14:02:40;3.97;6.88;3.61
45312;PMS7003;68267;51.540;5.854;2023-11-19T14:16:00;3.36;6.33;3.06
45312;PMS7003;68267;51.540;5.854;2023-11-19T14:29:20;3.12;6.11;3.28
45312;PMS7003;68267;51.540;5.854;2023-11-19T14:42:39;16.57;6.88;3.06
45312;PMS7003;68267;51.540;5.854;2023-11-19T14:55:59;3.0;6.0;2.95
45312;PMS7003;68267;51.540;5.854;2023-11-19T15:09:19;2.4;5.46;2.95
45312;PMS7003;68267;51.540;5.854;2023-11-19T15:22:38;18.13;5.24;2.84
45312;PMS7003;68267;51.540;5.854;2023-11-19T15:35:58;19.21;8.4;3.61
45312;PMS7003;68267;51.540;5.854;2023-11-19T15:49:18;7.57;4.59;2.84
45312;PMS7003;68267;51.540;5.854;2023-11-19T16:02:37;13.57;6.11;3.17
45312;PMS7003;68267;51.540;5.854;2023-11-19T16:15:57;8.89;7.53;3.61
45312;PMS7003;68267;51.540;5.854;2023-11-19T16:29:17;8.89;7.31;3.28
45312;PMS7003;68267;51.540;5.854;2023-11-19T16:42:36;13.81;7.64;3.5
45312;PMS7003;68267;51.540;5.854;2023-11-19T16:55:58;6.37;6.44;3.17
45312;PMS7003;68267;51.540;5.854;2023-11-19T17:09:18;12.85;8.4;3.39
45312;PMS7003;68267;51.540;5.854;2023-11-19T17:22:38;14.77;8.95;3.93
45312;PMS7003;68267;51.540;5.854;2023-11-19T17:35:57;9.73;9.6;4.7
45312;PMS7003;68267;51.540;5.854;2023-11-19T17:49:17;21.37;10.69;5.35
45312;PMS7003;68267;51.540;5.854;2023-11-19T18:02:37;17.41;8.08;4.15
45312;PMS7003;68267;51.540;5.854;2023-11-19T18:15:56;36.86;7.53;3.5
45312;PMS7003;68267;51.540;5.854;2023-11-19T18:29:16;25.57;6.88;3.39
45312;PMS7003;68267;51.540;5.854;2023-11-19T18:42:36;8.05;6.66;3.28
45312;PMS7003;68267;51.540;5.854;2023-11-19T18:55:55;4.57;5.68;3.28
45312;PMS7003;68267;51.540;5.854;2023-11-19T19:09:15;5.05;6.33;3.5
45312;PMS7003;68267;51.540;5.854;2023-11-19T19:22:34;1.2;4.37;2.73
45312;PMS7003;68267;51.540;5.854;2023-11-19T19:35:54;17.05;5.35;3.39
45312;PMS7003;68267;51.540;5.854;2023-11-19T19:49:14;11.41;7.09;3.61
45312;PMS7003;68267;51.540;5.854;2023-11-19T20:02:36;8.53;7.2;4.15
45312;PMS7003;68267;51.540;5.854;2023-11-19T20:15:58;4.33;7.2;4.15
45312;PMS7003;68267;51.540;5.854;2023-11-19T20:29:18;2.64;5.68;3.39
45312;PMS7003;68267;51.540;5.854;2023-11-19T20:42:37;6.73;5.35;3.17
45312;PMS7003;68267;51.540;5.854;2023-11-19T20:55:57;2.88;5.9;3.39
45312;PMS7003;68267;51.540;5.854;2023-11-19T21:09:17;1.92;5.02;3.39
45312;PMS7003;68267;51.540;5.854;2023-11-19T21:22:36;2.64;5.68;3.39
45312;PMS7003;68267;51.540;5.854;2023-11-19T21:35:56;7.93;4.8;3.06
45312;PMS7003;68267;51.540;5.854;2023-11-19T21:49:16;2.16;5.24;3.39
45312;PMS7003;68267;51.540;5.854;2023-11-19T22:02:38;9.13;3.93;3.17
45312;PMS7003;68267;51.540;5.854;2023-11-19T22:16:00;11.65;4.48;2.73
45312;PMS7003;68267;51.540;5.854;2023-11-19T22:29:19;2.28;5.35;3.5
45312;PMS7003;68267;51.540;5.854;2023-11-19T22:42:39;2.4;5.46;3.28
45312;PMS7003;68267;51.540;5.854;2023-11-19T22:55:59;2.04;5.13;3.28
45312;PMS7003;68267;51.540;5.854;2023-11-19T23:09:18;3.0;6.0;3.5
45312;PMS7003;68267;51.540;5.854;2023-11-19T23:35:58;7.69;6.22;3.93
45312;PMS7003;68267;51.540;5.854;2023-11-19T23:49:17;9.01;5.9;3.5
